createdAt,value
2018-06-14T00:00:32.091Z,11.29
2018-06-14T00:01:32.081Z,11.29
2018-06-14T00:02:32.083Z,11.23
2018-06-14T00:03:32.080Z,11.19
2018-06-14T00:04:32.078Z,11.17
2018-06-14T00:05:32.077Z,11.11
2018-06-14T00:06:32.074Z,11.15
2018-06-14T00:07:32.076Z,11.14
2018-06-14T00:08:32.071Z,11.15
2018-06-14T00:09:32.069Z,11.18
2018-06-14T00:10:32.067Z,11.14
2018-06-14T00:11:32.066Z,11.12
2018-06-14T00:12:32.064Z,11.07
2018-06-14T00:13:32.063Z,11.07
2018-06-14T00:14:32.061Z,11.04
2018-06-14T00:15:32.059Z,10.96
2018-06-14T00:16:32.058Z,10.92
2018-06-14T00:17:32.102Z,10.87
2018-06-14T00:18:32.055Z,10.86
2018-06-14T00:19:32.052Z,10.89
2018-06-14T00:20:32.053Z,10.99
2018-06-14T00:21:32.049Z,10.96
2018-06-14T00:22:32.046Z,10.96
2018-06-14T00:23:32.045Z,10.97
2018-06-14T00:24:32.043Z,10.99
2018-06-14T00:25:32.040Z,11.02
2018-06-14T00:26:32.039Z,11.04
2018-06-14T00:27:32.040Z,10.96
2018-06-14T00:28:32.035Z,10.97
2018-06-14T00:29:32.032Z,10.97
2018-06-14T00:30:32.031Z,11.04
2018-06-14T00:31:32.029Z,11.04
2018-06-14T00:32:32.028Z,10.94
2018-06-14T00:33:32.025Z,11.04
2018-06-14T00:34:32.023Z,10.96
2018-06-14T00:35:32.025Z,10.81
2018-06-14T00:36:32.019Z,10.92
2018-06-14T00:37:32.018Z,10.89
2018-06-14T00:38:32.014Z,10.86
2018-06-14T00:39:32.014Z,10.89
2018-06-14T00:40:32.013Z,10.79
2018-06-14T00:41:32.010Z,10.82
2018-06-14T00:42:32.007Z,10.76
2018-06-14T00:43:32.006Z,10.74
2018-06-14T00:44:32.005Z,10.82
2018-06-14T00:45:32.001Z,10.82
2018-06-14T00:46:31.999Z,10.92
2018-06-14T00:47:31.997Z,10.84
2018-06-14T00:48:31.996Z,10.82
2018-06-14T00:49:31.992Z,10.87
2018-06-14T00:50:31.991Z,10.84
2018-06-14T00:51:31.990Z,10.86
2018-06-14T00:52:31.987Z,10.87
2018-06-14T00:53:31.986Z,10.79
2018-06-14T00:54:31.983Z,10.74
2018-06-14T00:55:31.982Z,10.71
2018-06-14T00:56:31.981Z,10.75
2018-06-14T00:57:31.976Z,10.69
2018-06-14T00:58:31.976Z,10.72
2018-06-14T00:59:31.974Z,10.75
2018-06-14T01:00:31.971Z,10.78
2018-06-14T01:01:31.968Z,10.75
2018-06-14T01:02:31.967Z,10.75
2018-06-14T01:03:31.965Z,10.76
2018-06-14T01:04:31.963Z,10.76
2018-06-14T01:05:31.959Z,10.67
2018-06-14T01:06:31.958Z,10.68
2018-06-14T01:07:31.957Z,10.61
2018-06-14T01:08:31.957Z,10.61
2018-06-14T01:09:31.951Z,10.60
2018-06-14T01:10:31.950Z,10.63
2018-06-14T01:11:31.948Z,10.64
2018-06-14T01:12:31.946Z,10.60
2018-06-14T01:13:31.943Z,10.57
2018-06-14T01:14:31.942Z,10.60
2018-06-14T01:15:31.940Z,10.69
2018-06-14T01:16:31.938Z,10.68
2018-06-14T01:17:31.935Z,10.67
2018-06-14T01:18:31.933Z,10.64
2018-06-14T01:19:31.930Z,10.68
2018-06-14T01:20:31.929Z,10.72
2018-06-14T01:21:31.926Z,10.63
2018-06-14T01:22:31.968Z,10.64
2018-06-14T01:23:31.921Z,10.71
2018-06-14T01:24:31.920Z,10.72
2018-06-14T01:25:31.917Z,10.64
2018-06-14T01:26:31.915Z,10.69
2018-06-14T01:27:31.914Z,10.72
2018-06-14T01:28:31.912Z,10.63
2018-06-14T01:29:31.910Z,10.60
2018-06-14T01:30:31.906Z,10.60
2018-06-14T01:31:31.903Z,10.57
2018-06-14T01:32:31.903Z,10.72
2018-06-14T01:33:31.900Z,10.60
2018-06-14T01:34:31.896Z,10.59
2018-06-14T01:35:31.895Z,10.64
2018-06-14T01:36:31.893Z,10.64
2018-06-14T01:37:31.890Z,10.59
2018-06-14T01:38:31.888Z,10.56
2018-06-14T01:39:31.886Z,10.57
2018-06-14T01:40:31.884Z,10.54
2018-06-14T01:41:31.882Z,10.61
2018-06-14T01:42:31.881Z,10.54
2018-06-14T01:43:31.877Z,10.60
2018-06-14T01:44:31.875Z,10.54
2018-06-14T01:45:31.871Z,10.54
2018-06-14T01:46:31.869Z,10.57
2018-06-14T01:47:31.867Z,10.54
2018-06-14T01:48:31.865Z,10.54
2018-06-14T01:49:31.862Z,10.54
2018-06-14T01:50:31.860Z,10.51
2018-06-14T01:51:31.858Z,10.53
2018-06-14T01:52:31.856Z,10.56
2018-06-14T01:53:31.853Z,10.49
2018-06-14T01:54:31.849Z,10.56
2018-06-14T01:55:31.849Z,10.49
2018-06-14T01:56:31.847Z,10.51
2018-06-14T01:57:31.842Z,10.49
2018-06-14T01:58:31.841Z,10.44
2018-06-14T01:59:31.839Z,10.44
2018-06-14T02:00:31.841Z,10.37
2018-06-14T02:01:31.834Z,10.35
2018-06-14T02:02:31.831Z,10.38
2018-06-14T02:03:31.829Z,10.33
2018-06-14T02:04:31.827Z,10.30
2018-06-14T02:05:31.824Z,10.26
2018-06-14T02:06:31.822Z,10.26
2018-06-14T02:07:31.819Z,10.20
2018-06-14T02:08:31.817Z,10.10
2018-06-14T02:09:31.813Z,10.19
2018-06-14T02:10:31.811Z,10.04
2018-06-14T02:11:31.810Z,9.97
2018-06-14T02:12:31.808Z,10.07
2018-06-14T02:13:31.804Z,10.07
2018-06-14T02:14:31.802Z,10.07
2018-06-14T02:15:31.800Z,10.07
2018-06-14T02:16:31.797Z,10.02
2018-06-14T02:17:31.793Z,10.04
2018-06-14T02:18:31.792Z,9.97
2018-06-14T02:19:31.789Z,10.01
2018-06-14T02:20:31.787Z,10.07
2018-06-14T02:21:31.788Z,9.99
2018-06-14T02:22:31.781Z,9.98
2018-06-14T02:23:31.779Z,9.98
2018-06-14T02:24:31.776Z,9.98
2018-06-14T02:25:31.774Z,9.92
2018-06-14T02:26:31.771Z,10.02
2018-06-14T02:27:31.770Z,10.07
2018-06-14T02:28:31.767Z,9.97
2018-06-14T02:29:31.764Z,10.10
2018-06-14T02:30:31.761Z,10.10
2018-06-14T02:31:31.758Z,10.17
2018-06-14T02:32:31.757Z,10.13
2018-06-14T02:33:31.753Z,10.12
2018-06-14T02:34:31.750Z,10.15
2018-06-14T02:35:31.748Z,10.10
2018-06-14T02:36:31.746Z,10.17
2018-06-14T02:37:31.742Z,10.12
2018-06-14T02:38:31.745Z,10.13
2018-06-14T02:39:31.738Z,10.13
2018-06-14T02:40:31.737Z,10.19
2018-06-14T02:41:31.732Z,10.22
2018-06-14T02:42:31.730Z,10.26
2018-06-14T02:43:31.727Z,10.23
2018-06-14T02:44:31.724Z,10.22
2018-06-14T02:45:31.721Z,10.16
2018-06-14T02:46:31.719Z,10.13
2018-06-14T02:47:31.717Z,10.09
2018-06-14T02:48:31.714Z,10.10
2018-06-14T02:49:31.715Z,10.10
2018-06-14T02:50:31.709Z,10.10
2018-06-14T02:51:31.707Z,10.19
2018-06-14T02:52:31.704Z,10.15
2018-06-14T02:53:31.704Z,10.13
2018-06-14T02:54:31.698Z,10.15
2018-06-14T02:55:31.698Z,10.13
2018-06-14T02:56:31.693Z,10.12
2018-06-14T02:57:31.690Z,10.12
2018-06-14T02:58:31.688Z,10.16
2018-06-14T02:59:31.685Z,10.16
2018-06-14T03:00:31.684Z,10.19
2018-06-14T03:01:31.679Z,10.15
2018-06-14T03:02:31.677Z,10.13
2018-06-14T03:03:31.674Z,10.10
2018-06-14T03:04:31.672Z,10.22
2018-06-14T03:05:31.668Z,10.10
2018-06-14T03:06:31.666Z,10.20
2018-06-14T03:07:31.663Z,10.22
2018-06-14T03:08:31.660Z,10.28
2018-06-14T03:09:31.657Z,10.28
2018-06-14T03:10:31.655Z,10.26
2018-06-14T03:11:31.654Z,10.17
2018-06-14T03:12:31.650Z,10.26
2018-06-14T03:13:31.646Z,10.20
2018-06-14T03:14:31.652Z,10.12
2018-06-14T03:15:31.642Z,10.10
2018-06-14T03:16:31.639Z,10.12
2018-06-14T03:17:31.635Z,10.12
2018-06-14T03:18:31.634Z,10.20
2018-06-14T03:19:31.631Z,10.10
2018-06-14T03:20:31.628Z,10.12
2018-06-14T03:21:31.623Z,10.16
2018-06-14T03:22:31.622Z,10.17
2018-06-14T03:23:31.619Z,10.12
2018-06-14T03:24:31.619Z,10.12
2018-06-14T03:25:31.613Z,10.13
2018-06-14T03:26:31.611Z,10.22
2018-06-14T03:27:31.609Z,10.09
2018-06-14T03:28:31.605Z,10.17
2018-06-14T03:29:31.603Z,10.07
2018-06-14T03:30:31.600Z,10.19
2018-06-14T03:31:31.598Z,10.12
2018-06-14T03:32:31.596Z,10.15
2018-06-14T03:33:31.591Z,10.13
2018-06-14T03:34:31.589Z,10.17
2018-06-14T03:35:31.588Z,10.19
2018-06-14T03:36:31.585Z,10.22
2018-06-14T03:37:31.581Z,10.26
2018-06-14T03:38:31.578Z,10.28
2018-06-14T03:39:31.576Z,10.33
2018-06-14T03:40:31.574Z,10.30
2018-06-14T03:41:31.573Z,10.34
2018-06-14T03:42:31.569Z,10.35
2018-06-14T03:43:31.565Z,10.31
2018-06-14T03:44:31.565Z,10.37
2018-06-14T03:45:31.560Z,10.31
2018-06-14T03:46:31.616Z,10.35
2018-06-14T03:47:31.555Z,10.41
2018-06-14T03:48:31.553Z,10.46
2018-06-14T03:49:31.550Z,10.42
2018-06-14T03:50:31.547Z,10.41
2018-06-14T03:51:31.545Z,10.46
2018-06-14T03:52:31.542Z,10.51
2018-06-14T03:53:31.539Z,10.51
2018-06-14T03:54:31.536Z,10.54
2018-06-14T03:55:31.532Z,10.54
2018-06-14T03:56:31.534Z,10.57
2018-06-14T03:57:31.530Z,10.56
2018-06-14T03:58:31.527Z,10.49
2018-06-14T03:59:31.525Z,10.63
2018-06-14T04:00:31.523Z,10.57
2018-06-14T04:01:31.519Z,10.57
2018-06-14T04:02:31.516Z,10.59
2018-06-14T04:03:31.514Z,10.60
2018-06-14T04:04:31.512Z,10.54
2018-06-14T04:05:31.508Z,10.63
2018-06-14T04:06:31.507Z,10.63
2018-06-14T04:07:31.504Z,10.63
2018-06-14T04:08:31.502Z,10.69
2018-06-14T04:09:31.499Z,10.61
2018-06-14T04:10:31.499Z,10.64
2018-06-14T04:11:31.494Z,10.71
2018-06-14T04:12:31.493Z,10.75
2018-06-14T04:13:31.489Z,10.69
2018-06-14T04:14:31.487Z,10.74
2018-06-14T04:15:31.485Z,10.75
2018-06-14T04:16:31.483Z,10.76
2018-06-14T04:17:31.479Z,10.84
2018-06-14T04:18:31.494Z,10.75
2018-06-14T04:19:31.474Z,10.82
2018-06-14T04:20:31.495Z,10.76
2018-06-14T04:21:31.470Z,10.84
2018-06-14T04:22:31.468Z,10.86
2018-06-14T04:23:31.465Z,10.90
2018-06-14T04:24:31.465Z,10.93
2018-06-14T04:25:31.464Z,11.00
2018-06-14T04:26:31.459Z,10.97
2018-06-14T04:27:31.494Z,11.02
2018-06-14T04:28:31.456Z,11.00
2018-06-14T04:29:31.452Z,11.05
2018-06-14T04:30:31.450Z,11.07
2018-06-14T04:31:31.448Z,11.12
2018-06-14T04:32:31.447Z,11.18
2018-06-14T04:33:31.444Z,11.23
2018-06-14T04:34:31.444Z,11.33
2018-06-14T04:35:31.440Z,11.30
2018-06-14T04:36:31.442Z,11.32
2018-06-14T04:37:31.435Z,11.32
2018-06-14T04:38:31.433Z,11.35
2018-06-14T04:39:31.432Z,11.43
2018-06-14T04:40:31.432Z,11.45
2018-06-14T04:41:31.426Z,11.37
2018-06-14T04:42:31.425Z,11.35
2018-06-14T04:43:31.424Z,11.51
2018-06-14T04:44:31.422Z,11.62
2018-06-14T04:45:31.420Z,11.59
2018-06-14T04:46:31.419Z,11.57
2018-06-14T04:47:31.418Z,11.62
2018-06-14T04:48:31.416Z,11.70
2018-06-14T04:49:31.413Z,11.81
2018-06-14T04:50:31.411Z,11.78
2018-06-14T04:51:31.409Z,11.80
2018-06-14T04:52:31.407Z,11.95
2018-06-14T04:53:31.456Z,11.99
2018-06-14T04:54:31.403Z,11.91
2018-06-14T04:55:31.401Z,12.06
2018-06-14T04:56:31.400Z,12.00
2018-06-14T04:57:31.399Z,12.09
2018-06-14T04:58:31.396Z,12.06
2018-06-14T04:59:31.396Z,12.13
2018-06-14T05:00:31.394Z,12.10
2018-06-14T05:01:31.390Z,12.15
2018-06-14T05:02:31.401Z,12.17
2018-06-14T05:03:31.389Z,12.25
2018-06-14T05:04:31.386Z,12.36
2018-06-14T05:05:31.384Z,12.31
2018-06-14T05:06:31.382Z,12.45
2018-06-14T05:07:31.382Z,12.43
2018-06-14T05:08:31.380Z,12.53
2018-06-14T05:09:31.377Z,12.54
2018-06-14T05:10:31.376Z,12.67
2018-06-14T05:11:31.375Z,12.73
2018-06-14T05:12:31.374Z,12.70
2018-06-14T05:13:31.371Z,12.79
2018-06-14T05:14:31.371Z,12.82
2018-06-14T05:15:31.371Z,12.78
2018-06-14T05:16:31.369Z,12.79
2018-06-14T05:17:31.368Z,12.82
2018-06-14T05:18:31.365Z,12.85
2018-06-14T05:19:31.364Z,12.98
2018-06-14T05:20:31.363Z,13.90
2018-06-14T05:21:31.362Z,14.79
2018-06-14T05:22:31.361Z,15.58
2018-06-14T05:23:31.411Z,16.04
2018-06-14T05:24:31.362Z,16.54
2018-06-14T05:25:31.362Z,17.05
2018-06-14T05:26:31.364Z,17.15
2018-06-14T05:27:31.366Z,17.39
2018-06-14T05:28:31.368Z,17.67
2018-06-14T05:29:31.376Z,17.86
2018-06-14T05:30:31.373Z,17.86
2018-06-14T05:31:31.377Z,18.07
2018-06-14T05:32:31.383Z,18.23
2018-06-14T05:33:31.384Z,18.38
2018-06-14T05:34:31.393Z,18.29
2018-06-14T05:35:31.395Z,18.49
2018-06-14T05:36:31.401Z,18.47
2018-06-14T05:37:31.405Z,18.53
2018-06-14T05:38:31.413Z,18.50
2018-06-14T05:39:31.418Z,18.34
2018-06-14T05:40:31.427Z,18.49
2018-06-14T05:41:31.432Z,18.58
2018-06-14T05:42:31.475Z,18.34
2018-06-14T05:43:31.446Z,18.20
2018-06-14T05:44:31.480Z,18.31
2018-06-14T05:45:31.460Z,18.34
2018-06-14T05:46:31.467Z,18.34
2018-06-14T05:47:31.476Z,17.98
2018-06-14T05:48:31.483Z,17.86
2018-06-14T05:49:31.489Z,17.54
2018-06-14T05:50:31.495Z,17.63
2018-06-14T05:51:31.504Z,17.36
2018-06-14T05:52:31.511Z,17.12
2018-06-14T05:53:31.517Z,17.06
2018-06-14T05:54:31.523Z,17.05
2018-06-14T05:55:31.529Z,16.71
2018-06-14T05:56:31.536Z,16.49
2018-06-14T05:57:31.541Z,16.29
2018-06-14T05:58:31.546Z,16.05
2018-06-14T05:59:31.551Z,16.15
2018-06-14T06:00:31.558Z,16.10
2018-06-14T06:01:31.564Z,15.95
2018-06-14T06:02:31.569Z,15.88
2018-06-14T06:03:31.574Z,15.92
2018-06-14T06:04:31.582Z,15.70
2018-06-14T06:05:31.584Z,15.65
2018-06-14T06:06:31.589Z,15.75
2018-06-14T06:07:31.593Z,15.64
2018-06-14T06:08:31.598Z,15.59
2018-06-14T06:09:31.602Z,15.65
2018-06-14T06:10:31.608Z,15.86
2018-06-14T06:11:31.611Z,15.83
2018-06-14T06:12:31.615Z,15.92
2018-06-14T06:13:31.618Z,15.84
2018-06-14T06:14:31.621Z,15.91
2018-06-14T06:15:31.626Z,16.08
2018-06-14T06:16:31.630Z,16.12
2018-06-14T06:17:31.633Z,16.05
2018-06-14T06:18:31.637Z,16.02
2018-06-14T06:19:31.641Z,16.02
2018-06-14T06:20:31.645Z,16.13
2018-06-14T06:21:31.647Z,16.13
2018-06-14T06:22:31.650Z,16.08
2018-06-14T06:23:31.682Z,16.13
2018-06-14T06:24:31.656Z,16.15
2018-06-14T06:25:31.659Z,16.33
2018-06-14T06:26:31.664Z,16.35
2018-06-14T06:27:31.667Z,16.39
2018-06-14T06:28:31.670Z,16.46
2018-06-14T06:29:31.673Z,16.58
2018-06-14T06:30:31.677Z,16.69
2018-06-14T06:31:31.678Z,16.57
2018-06-14T06:32:31.683Z,16.61
2018-06-14T06:33:31.741Z,16.58
2018-06-14T06:34:31.689Z,16.51
2018-06-14T06:35:31.690Z,16.53
2018-06-14T06:36:31.696Z,16.60
2018-06-14T06:37:31.696Z,16.64
2018-06-14T06:38:31.697Z,16.64
2018-06-14T06:39:31.702Z,16.68
2018-06-14T06:40:31.703Z,16.76
2018-06-14T06:41:31.706Z,16.93
2018-06-14T06:42:31.709Z,16.87
2018-06-14T06:43:31.712Z,16.97
2018-06-14T06:44:31.716Z,17.02
2018-06-14T06:45:31.719Z,17.04
2018-06-14T06:46:31.720Z,17.04
2018-06-14T06:47:31.723Z,17.14
2018-06-14T06:48:31.726Z,17.08
2018-06-14T06:49:31.728Z,17.11
2018-06-14T06:50:31.731Z,17.14
2018-06-14T06:51:31.735Z,17.22
2018-06-14T06:52:31.737Z,17.34
2018-06-14T06:53:31.742Z,17.27
2018-06-14T06:54:31.743Z,17.29
2018-06-14T06:55:31.745Z,17.39
2018-06-14T06:56:31.746Z,17.45
2018-06-14T06:57:31.749Z,17.48
2018-06-14T06:58:31.752Z,17.64
2018-06-14T06:59:31.755Z,17.56
2018-06-14T07:00:31.757Z,17.70
2018-06-14T07:01:31.760Z,17.64
2018-06-14T07:02:31.763Z,17.42
2018-06-14T07:03:31.766Z,17.49
2018-06-14T07:04:31.770Z,17.67
2018-06-14T07:05:31.770Z,17.67
2018-06-14T07:06:31.844Z,17.74
2018-06-14T07:07:31.777Z,17.85
2018-06-14T07:08:31.780Z,17.87
2018-06-14T07:09:31.782Z,17.92
2018-06-14T07:10:31.787Z,17.85
2018-06-14T07:11:31.818Z,17.89
2018-06-14T07:12:31.791Z,18.13
2018-06-14T07:13:31.794Z,18.16
2018-06-14T07:14:31.796Z,18.22
2018-06-14T07:15:31.800Z,18.40
2018-06-14T07:16:31.802Z,18.41
2018-06-14T07:17:31.806Z,18.47
2018-06-14T07:18:31.809Z,18.53
2018-06-14T07:19:31.812Z,18.43
2018-06-14T07:20:31.816Z,18.23
2018-06-14T07:21:31.827Z,18.13
2018-06-14T07:22:31.823Z,18.26
2018-06-14T07:23:31.825Z,18.40
2018-06-14T07:24:31.828Z,18.44
2018-06-14T07:25:31.832Z,18.66
2018-06-14T07:26:31.833Z,18.89
2018-06-14T07:27:31.838Z,19.04
2018-06-14T07:28:31.842Z,19.14
2018-06-14T07:29:31.846Z,19.56
2018-06-14T07:30:31.850Z,19.73
2018-06-14T07:31:31.855Z,20.55
2018-06-14T07:32:31.861Z,21.11
2018-06-14T07:33:31.866Z,21.00
2018-06-14T07:34:31.874Z,21.25
2018-06-14T07:35:31.881Z,21.64
2018-06-14T07:36:31.887Z,22.39
2018-06-14T07:37:31.894Z,22.90
2018-06-14T07:38:31.902Z,23.12
2018-06-14T07:39:31.915Z,22.76
2018-06-14T07:40:31.920Z,22.54
2018-06-14T07:41:31.928Z,22.57
2018-06-14T07:42:31.944Z,22.36
2018-06-14T07:43:31.950Z,22.06
2018-06-14T07:44:31.959Z,22.26
2018-06-14T07:45:31.968Z,22.45
2018-06-14T07:46:31.979Z,22.59
2018-06-14T07:47:31.991Z,22.90
2018-06-14T07:48:32.003Z,22.65
2018-06-14T07:49:32.015Z,22.63
2018-06-14T07:50:32.026Z,22.00
2018-06-14T07:51:32.038Z,22.51
2018-06-14T07:52:32.050Z,22.73
2018-06-14T07:53:32.062Z,22.70
2018-06-14T07:54:32.078Z,22.78
2018-06-14T07:55:32.088Z,22.91
2018-06-14T07:56:32.102Z,22.91
2018-06-14T07:57:32.114Z,23.34
2018-06-14T07:58:32.128Z,23.40
2018-06-14T07:59:32.141Z,23.78
2018-06-14T08:00:32.157Z,23.54
2018-06-14T08:01:32.169Z,23.66
2018-06-14T08:02:32.183Z,23.73
2018-06-14T08:03:32.197Z,23.81
2018-06-14T08:04:32.212Z,23.58
2018-06-14T08:05:32.224Z,23.46
2018-06-14T08:06:32.292Z,23.73
2018-06-14T08:07:32.256Z,23.50
2018-06-14T08:08:32.269Z,23.95
2018-06-14T08:09:32.283Z,23.59
2018-06-14T08:10:32.298Z,23.88
2018-06-14T08:11:32.313Z,24.17
2018-06-14T08:12:32.462Z,24.03
2018-06-14T08:13:32.343Z,24.48
2018-06-14T08:14:32.360Z,24.80
2018-06-14T08:15:32.375Z,24.48
2018-06-14T08:16:32.387Z,24.53
2018-06-14T08:17:32.406Z,24.42
2018-06-14T08:18:32.417Z,24.16
2018-06-14T08:19:32.434Z,24.57
2018-06-14T08:20:32.447Z,24.63
2018-06-14T08:21:32.462Z,24.38
2018-06-14T08:22:32.477Z,25.17
2018-06-14T08:23:32.495Z,24.99
2018-06-14T08:24:32.507Z,24.30
2018-06-14T08:25:32.521Z,23.21
2018-06-14T08:26:32.536Z,22.91
2018-06-14T08:27:32.551Z,22.45
2018-06-14T08:28:32.567Z,23.12
2018-06-14T08:29:32.581Z,23.73
2018-06-14T08:30:32.595Z,23.98
2018-06-14T08:31:32.610Z,23.86
2018-06-14T08:32:32.625Z,23.68
2018-06-14T08:33:32.639Z,23.32
2018-06-14T08:34:32.654Z,23.93
2018-06-14T08:35:32.668Z,24.69
2018-06-14T08:36:32.682Z,24.36
2018-06-14T08:37:32.696Z,23.71
2018-06-14T08:38:32.711Z,23.69
2018-06-14T08:39:32.724Z,22.26
2018-06-14T08:40:32.739Z,21.77
2018-06-14T08:41:32.752Z,21.45
2018-06-14T08:42:32.766Z,20.93
2018-06-14T08:43:32.780Z,21.25
2018-06-14T08:44:32.797Z,22.15
2018-06-14T08:45:32.807Z,22.04
2018-06-14T08:46:32.820Z,22.70
2018-06-14T08:47:32.834Z,23.15
2018-06-14T08:48:32.848Z,22.83
2018-06-14T08:49:32.860Z,21.96
2018-06-14T08:50:32.872Z,21.25
2018-06-14T08:51:32.887Z,22.35
2018-06-14T08:52:32.899Z,23.03
2018-06-14T08:53:32.911Z,23.73
2018-06-14T08:54:32.924Z,24.13
2018-06-14T08:55:32.938Z,24.05
2018-06-14T08:56:32.950Z,24.70
2018-06-14T08:57:32.961Z,25.07
2018-06-14T08:58:32.976Z,25.31
2018-06-14T08:59:32.989Z,25.81
2018-06-14T09:00:33.004Z,26.16
2018-06-14T09:01:33.016Z,25.93
2018-06-14T09:02:33.029Z,26.02
2018-06-14T09:03:33.043Z,25.55
2018-06-14T09:04:33.059Z,24.85
2018-06-14T09:05:33.070Z,24.68
2018-06-14T09:06:33.083Z,24.80
2018-06-14T09:07:33.097Z,24.70
2018-06-14T09:08:33.116Z,23.87
2018-06-14T09:09:33.125Z,24.65
2018-06-14T09:10:33.139Z,25.47
2018-06-14T09:11:33.153Z,24.63
2018-06-14T09:12:33.167Z,23.87
2018-06-14T09:13:33.182Z,23.68
2018-06-14T09:14:33.195Z,23.15
2018-06-14T09:15:33.209Z,23.80
2018-06-14T09:16:33.226Z,23.80
2018-06-14T09:17:33.236Z,24.66
2018-06-14T09:18:33.250Z,25.46
2018-06-14T09:19:33.265Z,26.06
2018-06-14T09:20:33.278Z,26.33
2018-06-14T09:21:33.295Z,25.80
2018-06-14T09:22:33.306Z,25.26
2018-06-14T09:23:33.325Z,26.23
2018-06-14T09:24:33.334Z,25.46
2018-06-14T09:25:33.347Z,24.38
2018-06-14T09:26:33.362Z,24.73
2018-06-14T09:27:33.377Z,23.98
2018-06-14T09:28:33.390Z,24.16
2018-06-14T09:29:33.402Z,24.66
2018-06-14T09:30:33.418Z,24.65
2018-06-14T09:31:33.430Z,24.40
2018-06-14T09:32:33.445Z,23.65
2018-06-14T09:33:33.458Z,23.10
2018-06-14T09:34:33.472Z,22.51
2018-06-14T09:35:33.485Z,22.22
2018-06-14T09:36:33.500Z,22.00
2018-06-14T09:37:33.512Z,22.68
2018-06-14T09:38:33.527Z,22.84
2018-06-14T09:39:33.539Z,24.08
2018-06-14T09:40:33.556Z,24.68
2018-06-14T09:41:33.564Z,25.11
2018-06-14T09:42:33.576Z,25.36
2018-06-14T09:43:33.594Z,25.70
2018-06-14T09:44:33.604Z,25.23
2018-06-14T09:45:33.617Z,24.57
2018-06-14T09:46:33.630Z,22.91
2018-06-14T09:47:33.642Z,22.32
2018-06-14T09:48:33.658Z,22.45
2018-06-14T09:49:33.667Z,22.30
2018-06-14T09:50:33.682Z,21.98
2018-06-14T09:51:33.694Z,21.88
2018-06-14T09:52:33.707Z,22.04
2018-06-14T09:53:33.719Z,22.14
2018-06-14T09:54:33.731Z,22.28
2018-06-14T09:55:33.743Z,21.93
2018-06-14T09:56:33.757Z,21.66
2018-06-14T09:57:33.767Z,21.36
2018-06-14T09:58:33.780Z,21.57
2018-06-14T09:59:33.792Z,21.92
2018-06-14T10:00:33.802Z,21.88
2018-06-14T10:01:33.812Z,22.69
2018-06-14T10:02:33.824Z,23.00
2018-06-14T10:03:33.835Z,22.85
2018-06-14T10:04:33.847Z,22.54
2018-06-14T10:05:33.857Z,22.43
2018-06-14T10:06:33.868Z,22.20
2018-06-14T10:07:33.881Z,21.79
2018-06-14T10:08:33.890Z,21.52
2018-06-14T10:09:33.897Z,21.21
2018-06-14T10:10:33.908Z,21.21
2018-06-14T10:11:33.919Z,21.27
2018-06-14T10:12:33.932Z,21.18
2018-06-14T10:13:33.938Z,22.28
2018-06-14T10:14:33.948Z,23.51
2018-06-14T10:15:33.960Z,24.06
2018-06-14T10:16:33.969Z,23.87
2018-06-14T10:17:33.977Z,23.93
2018-06-14T10:18:33.988Z,24.57
2018-06-14T10:19:33.998Z,24.99
2018-06-14T10:20:34.015Z,25.11
2018-06-14T10:21:34.018Z,25.35
2018-06-14T10:22:34.028Z,25.62
2018-06-14T10:23:34.039Z,24.68
2018-06-14T10:24:34.050Z,24.03
2018-06-14T10:25:34.060Z,23.50
2018-06-14T10:26:34.071Z,24.03
2018-06-14T10:27:34.083Z,23.34
2018-06-14T10:28:34.093Z,23.73
2018-06-14T10:29:34.105Z,24.38
2018-06-14T10:30:34.115Z,23.96
2018-06-14T10:31:34.126Z,24.03
2018-06-14T10:32:34.138Z,23.74
2018-06-14T10:33:34.148Z,24.17
2018-06-14T10:34:34.164Z,24.89
2018-06-14T10:35:34.171Z,25.11
2018-06-14T10:36:34.182Z,24.40
2018-06-14T10:37:34.194Z,24.61
2018-06-14T10:38:34.205Z,24.68
2018-06-14T10:39:34.216Z,23.55
2018-06-14T10:40:34.228Z,23.84
2018-06-14T10:41:34.239Z,23.88
2018-06-14T10:42:34.251Z,23.68
2018-06-14T10:43:34.316Z,23.40
2018-06-14T10:44:34.275Z,23.12
2018-06-14T10:45:34.284Z,22.99
2018-06-14T10:46:34.296Z,23.18
2018-06-14T10:47:34.308Z,23.00
2018-06-14T10:48:34.319Z,22.66
2018-06-14T10:49:34.328Z,22.94
2018-06-14T10:50:34.340Z,23.00
2018-06-14T10:51:34.351Z,23.08
2018-06-14T10:52:34.363Z,23.58
2018-06-14T10:53:34.372Z,23.41
2018-06-14T10:54:34.382Z,23.21
2018-06-14T10:55:34.394Z,23.73
2018-06-14T10:56:34.403Z,23.78
2018-06-14T10:57:34.413Z,23.48
2018-06-14T10:58:34.424Z,23.37
2018-06-14T10:59:34.435Z,23.23
2018-06-14T11:00:34.444Z,22.98
2018-06-14T11:01:34.459Z,23.09
2018-06-14T11:02:34.465Z,23.23
2018-06-14T11:03:34.474Z,23.40
2018-06-14T11:04:34.486Z,23.59
2018-06-14T11:05:34.494Z,23.65
2018-06-14T11:06:34.505Z,23.69
2018-06-14T11:07:34.515Z,23.59
2018-06-14T11:08:34.525Z,23.47
2018-06-14T11:09:34.534Z,23.69
2018-06-14T11:10:34.546Z,23.65
2018-06-14T11:11:34.554Z,23.43
2018-06-14T11:12:34.565Z,23.63
2018-06-14T11:13:34.573Z,23.46
2018-06-14T11:14:34.583Z,22.98
2018-06-14T11:15:34.594Z,23.00
2018-06-14T11:16:34.603Z,23.08
2018-06-14T11:17:34.612Z,22.98
2018-06-14T11:18:34.621Z,23.08
2018-06-14T11:19:34.632Z,22.73
2018-06-14T11:20:34.642Z,22.91
2018-06-14T11:21:34.654Z,22.72
2018-06-14T11:22:34.660Z,22.91
2018-06-14T11:23:34.669Z,23.09
2018-06-14T11:24:34.678Z,23.44
2018-06-14T11:25:34.688Z,23.56
2018-06-14T11:26:34.697Z,23.28
2018-06-14T11:27:34.706Z,23.58
2018-06-14T11:28:34.720Z,23.73
2018-06-14T11:29:34.725Z,23.92
2018-06-14T11:30:34.735Z,23.66
2018-06-14T11:31:34.744Z,23.81
2018-06-14T11:32:34.754Z,24.13
2018-06-14T11:33:34.762Z,24.02
2018-06-14T11:34:34.772Z,23.92
2018-06-14T11:35:34.781Z,23.73
2018-06-14T11:36:34.791Z,23.58
2018-06-14T11:37:34.800Z,23.68
2018-06-14T11:38:34.809Z,23.87
2018-06-14T11:39:34.877Z,23.81
2018-06-14T11:40:34.827Z,23.65
2018-06-14T11:41:34.837Z,23.73
2018-06-14T11:42:34.851Z,23.66
2018-06-14T11:43:34.856Z,23.78
2018-06-14T11:44:34.865Z,23.32
2018-06-14T11:45:34.873Z,23.15
2018-06-14T11:46:34.883Z,23.28
2018-06-14T11:47:34.893Z,23.21
2018-06-14T11:48:34.904Z,23.25
2018-06-14T11:49:34.910Z,23.40
2018-06-14T11:50:34.922Z,23.37
2018-06-14T11:51:34.928Z,23.10
2018-06-14T11:52:34.937Z,23.00
2018-06-14T11:53:34.945Z,23.13
2018-06-14T11:54:34.954Z,23.44
2018-06-14T11:55:34.965Z,23.63
2018-06-14T11:56:34.974Z,23.76
2018-06-14T11:57:34.983Z,23.51
2018-06-14T11:58:34.993Z,23.18
2018-06-14T11:59:35.001Z,23.28
2018-06-14T12:00:35.010Z,23.65
2018-06-14T12:01:35.020Z,23.74
2018-06-14T12:02:35.028Z,23.66
2018-06-14T12:03:35.037Z,23.71
2018-06-14T12:04:35.046Z,23.77
2018-06-14T12:05:35.055Z,23.88
2018-06-14T12:06:35.064Z,23.77
2018-06-14T12:07:35.073Z,23.93
2018-06-14T12:08:35.081Z,24.05
2018-06-14T12:09:35.090Z,24.01
2018-06-14T12:10:35.100Z,23.80
2018-06-14T12:11:35.110Z,23.65
2018-06-14T12:12:35.118Z,23.68
2018-06-14T12:13:35.126Z,23.78
2018-06-14T12:14:35.141Z,23.95
2018-06-14T12:15:35.146Z,24.21
2018-06-14T12:16:35.154Z,24.21
2018-06-14T12:17:35.162Z,23.98
2018-06-14T12:18:35.171Z,23.93
2018-06-14T12:19:35.181Z,24.21
2018-06-14T12:20:35.190Z,24.28
2018-06-14T12:21:35.198Z,24.50
2018-06-14T12:22:35.208Z,24.14
2018-06-14T12:23:35.218Z,24.08
2018-06-14T12:24:35.226Z,24.23
2018-06-14T12:25:35.235Z,24.02
2018-06-14T12:26:35.245Z,23.88
2018-06-14T12:27:35.253Z,23.86
2018-06-14T12:28:35.263Z,23.83
2018-06-14T12:29:35.273Z,23.73
2018-06-14T12:30:35.282Z,23.63
2018-06-14T12:31:35.294Z,23.81
2018-06-14T12:32:35.300Z,23.91
2018-06-14T12:33:35.310Z,24.01
2018-06-14T12:34:35.315Z,23.77
2018-06-14T12:35:35.325Z,23.78
2018-06-14T12:36:35.335Z,23.73
2018-06-14T12:37:35.378Z,24.02
2018-06-14T12:38:35.352Z,24.53
2018-06-14T12:39:35.365Z,24.48
2018-06-14T12:40:35.371Z,24.47
2018-06-14T12:41:35.380Z,24.10
2018-06-14T12:42:35.389Z,24.11
2018-06-14T12:43:35.398Z,23.98
2018-06-14T12:44:35.408Z,24.24
2018-06-14T12:45:35.416Z,24.51
2018-06-14T12:46:35.425Z,24.57
2018-06-14T12:47:35.434Z,24.74
2018-06-14T12:48:35.443Z,24.60
2018-06-14T12:49:35.451Z,24.69
2018-06-14T12:50:35.460Z,24.57
2018-06-14T12:51:35.478Z,24.48
2018-06-14T12:52:35.480Z,23.99